Terminal Aerodrome Forecast
Issued by NWS Lake Charles, LA

Home | Current Version | Previous Version | Text Only | Print | Product List | Glossary On
Versions: 1 2 3 4 5 6 7 8 9 10 11 12 13 14 15 16 17
000
FTUS44 KLCH 292338
TAFAEX
TAF
KAEX 292338Z 3000/3024 15014G21KT P6SM VCSH SCT025 BKN250
     FM300600 16012KT P6SM VCTS SCT007 OVC015CB
      TEMPO 3011/3015 4SM TSRA BR BKN007CB
     FM301500 16010KT 4SM TSRA BR OVC015CB
     FM302000 18010KT P6SM VCTS BKN025CB=

USA.gov is the U.S. government's official web portal to all federal, state and local government web resources and services.